createdAt,value
2019-03-29T00:00:15.834Z,19.32
2019-03-29T00:05:24.917Z,23.36
2019-03-29T00:10:34.013Z,19.79
2019-03-29T00:15:43.054Z,23.29
2019-03-29T00:20:52.229Z,21.94
2019-03-29T00:26:01.278Z,20.29
2019-03-29T00:31:10.993Z,15.95
2019-03-29T00:36:20.091Z,19.07
2019-03-29T00:41:29.330Z,20.55
2019-03-29T00:46:38.389Z,18.68
2019-03-29T00:51:47.525Z,18.23
2019-03-29T00:56:56.606Z,19.72
2019-03-29T01:02:05.778Z,21.99
2019-03-29T01:07:14.873Z,21.84
2019-03-29T01:12:24.352Z,23.66
2019-03-29T01:17:33.400Z,19.03
2019-03-29T01:22:42.686Z,23.39
2019-03-29T01:27:51.795Z,18.16
2019-03-29T01:33:00.955Z,20.98
2019-03-29T01:38:21.223Z,20.89
2019-03-29T01:43:18.622Z,18.32
2019-03-29T01:48:27.642Z,22.89
2019-03-29T01:53:37.279Z,25.05
2019-03-29T01:58:45.458Z,22.48
2019-03-29T02:03:54.686Z,21.13
2019-03-29T02:09:04.962Z,23.65
2019-03-29T02:14:12.361Z,23.83
2019-03-29T02:19:21.409Z,22.34
2019-03-29T02:24:30.554Z,23.02
2019-03-29T02:29:39.628Z,25.09
2019-03-29T02:34:48.705Z,24.16
2019-03-29T02:39:57.707Z,20.55
2019-03-29T02:45:06.838Z,23.34
2019-03-29T02:50:16.010Z,25.43
2019-03-29T02:55:25.002Z,24.29
2019-03-29T03:00:34.052Z,21.63
2019-03-29T03:05:43.230Z,27.26
2019-03-29T03:10:52.279Z,22.63
2019-03-29T03:16:01.401Z,23.21
2019-03-29T03:21:10.750Z,25.56
2019-03-29T03:26:19.978Z,23.27
2019-03-29T03:31:29.058Z,18.17
2019-03-29T03:36:38.167Z,30.28
2019-03-29T03:41:47.183Z,28.62
2019-03-29T03:46:56.333Z,25.80
2019-03-29T03:52:05.383Z,23.67
2019-03-29T03:57:14.549Z,26.16
2019-03-29T04:02:23.566Z,19.75
2019-03-29T04:07:32.740Z,30.70
2019-03-29T04:12:41.786Z,32.50
2019-03-29T04:17:50.887Z,31.96
2019-03-29T04:22:59.925Z,25.81
2019-03-29T04:28:09.065Z,26.67
2019-03-29T04:33:18.152Z,23.70
2019-03-29T04:38:27.386Z,24.51
2019-03-29T04:43:36.442Z,26.29
2019-03-29T04:48:45.551Z,23.01
2019-03-29T04:53:54.585Z,21.32
2019-03-29T04:59:03.910Z,19.48
2019-03-29T05:04:12.943Z,20.54
2019-03-29T05:09:22.094Z,22.33
2019-03-29T05:14:31.194Z,23.57
2019-03-29T05:19:40.370Z,19.68
2019-03-29T05:24:49.446Z,20.71
2019-03-29T05:29:58.626Z,23.77
2019-03-29T05:35:07.729Z,24.12
2019-03-29T05:40:16.859Z,22.09
2019-03-29T05:45:25.937Z,24.72
2019-03-29T05:50:36.814Z,20.47
2019-03-29T05:55:43.614Z,21.90
2019-03-29T06:00:53.279Z,20.20
2019-03-29T06:06:02.332Z,19.64
2019-03-29T06:11:11.518Z,19.93
2019-03-29T06:16:20.587Z,20.86
2019-03-29T06:21:29.708Z,18.06
2019-03-29T06:26:38.781Z,18.89
2019-03-29T06:31:47.890Z,20.43
2019-03-29T06:36:56.917Z,18.26
2019-03-29T06:42:06.039Z,14.13
2019-03-29T06:47:15.129Z,16.24
2019-03-29T06:52:24.237Z,16.90
2019-03-29T06:57:33.265Z,18.27
2019-03-29T07:02:42.467Z,20.72
2019-03-29T07:07:51.545Z,15.68
2019-03-29T07:13:00.668Z,15.68
2019-03-29T07:18:09.721Z,15.80
2019-03-29T07:23:19.187Z,13.76
2019-03-29T07:28:28.273Z,18.76
2019-03-29T07:33:37.482Z,17.33
2019-03-29T07:38:46.533Z,15.71
2019-03-29T07:43:55.645Z,16.89
2019-03-29T07:49:04.694Z,15.16
2019-03-29T07:54:13.786Z,13.79
2019-03-29T07:59:23.323Z,14.60
2019-03-29T08:04:31.545Z,15.61
2019-03-29T08:09:40.589Z,15.13
2019-03-29T08:14:49.707Z,14.42
2019-03-29T08:20:35.869Z,13.48
2019-03-29T08:25:07.497Z,15.56
2019-03-29T08:30:16.594Z,14.41
2019-03-29T08:35:25.763Z,18.37
2019-03-29T08:40:34.899Z,18.08
2019-03-29T08:45:44.064Z,15.36
2019-03-29T08:50:53.110Z,15.33
2019-03-29T08:56:02.296Z,15.46
2019-03-29T09:01:11.382Z,17.01
2019-03-29T09:06:21.081Z,19.30
2019-03-29T09:11:30.125Z,21.78
2019-03-29T09:16:39.243Z,19.43
2019-03-29T09:21:48.429Z,16.23
2019-03-29T09:26:57.638Z,19.80
2019-03-29T09:32:06.700Z,21.92
2019-03-29T09:37:15.939Z,21.12
2019-03-29T09:42:29.553Z,21.33
2019-03-29T09:47:38.551Z,25.12
2019-03-29T09:52:42.223Z,23.51
2019-03-29T09:57:51.322Z,22.36
2019-03-29T10:03:00.488Z,23.57
2019-03-29T10:08:09.747Z,23.17
2019-03-29T10:13:18.933Z,25.94
2019-03-29T10:18:28.039Z,28.37
2019-03-29T10:23:37.105Z,30.65
2019-03-29T10:28:46.211Z,31.22
2019-03-29T10:33:55.310Z,26.58
2019-03-29T10:39:04.422Z,30.39
2019-03-29T10:44:13.430Z,26.87
2019-03-29T10:49:23.349Z,23.62
2019-03-29T10:54:32.431Z,25.41
2019-03-29T10:59:41.598Z,29.90
2019-03-29T11:04:50.702Z,25.44
2019-03-29T11:09:59.921Z,23.10
2019-03-29T11:15:09.039Z,25.69
2019-03-29T11:20:18.777Z,27.24
2019-03-29T11:25:26.805Z,22.14
2019-03-29T11:30:42.650Z,26.70
2019-03-29T11:35:44.566Z,26.64
2019-03-29T11:40:53.684Z,23.79
2019-03-29T11:46:02.728Z,25.06
2019-03-29T11:51:19.070Z,26.10
2019-03-29T11:56:20.392Z,30.43
2019-03-29T12:01:29.514Z,29.58
2019-03-29T12:06:38.583Z,29.26
2019-03-29T12:11:47.741Z,30.64
2019-03-29T12:16:56.802Z,27.73
2019-03-29T12:22:05.918Z,24.54
2019-03-29T12:27:15.007Z,24.43
2019-03-29T12:32:24.642Z,23.28
2019-03-29T12:37:33.676Z,21.94
2019-03-29T12:42:42.826Z,27.15
2019-03-29T12:47:51.890Z,21.85
2019-03-29T12:53:01.110Z,19.72
2019-03-29T12:58:10.227Z,19.13
2019-03-29T13:03:20.107Z,15.85
2019-03-29T13:08:29.147Z,17.93
2019-03-29T13:13:38.270Z,15.71
2019-03-29T13:18:47.297Z,20.52
2019-03-29T13:23:56.477Z,15.23
2019-03-29T13:29:05.557Z,21.52
2019-03-29T13:34:14.676Z,23.49
2019-03-29T13:39:23.728Z,22.06
2019-03-29T13:44:32.928Z,21.43
2019-03-29T13:49:42.118Z,22.28
2019-03-29T13:54:51.365Z,17.70
2019-03-29T14:00:00.541Z,9.95
2019-03-29T14:05:09.775Z,5.97
2019-03-29T14:10:18.838Z,5.06
2019-03-29T14:15:27.956Z,4.29
2019-03-29T14:20:37.010Z,7.46
2019-03-29T14:25:46.126Z,7.64
2019-03-29T14:30:55.182Z,3.82
2019-03-29T14:36:04.289Z,3.28
2019-03-29T14:41:13.370Z,5.02
2019-03-29T14:46:23.302Z,3.03
2019-03-29T14:51:32.405Z,5.32
2019-03-29T14:56:41.550Z,3.87
2019-03-29T15:01:50.552Z,3.23
2019-03-29T15:06:59.690Z,2.95
2019-03-29T15:12:08.763Z,2.04
2019-03-29T15:17:21.245Z,2.27
2019-03-29T15:22:26.762Z,4.75
2019-03-29T15:27:35.870Z,3.08
2019-03-29T15:32:44.919Z,3.89
2019-03-29T15:37:54.234Z,6.93
2019-03-29T15:43:03.270Z,6.56
2019-03-29T15:48:12.430Z,5.29
2019-03-29T15:53:21.490Z,5.36
2019-03-29T15:58:30.662Z,5.99
2019-03-29T16:03:39.721Z,7.36
2019-03-29T16:08:48.885Z,8.24
2019-03-29T16:13:57.925Z,8.22
2019-03-29T16:19:07.087Z,7.46
2019-03-29T16:24:16.090Z,5.29
2019-03-29T16:29:23.785Z,5.66
2019-03-29T16:34:32.989Z,6.20
2019-03-29T16:39:42.211Z,8.53
2019-03-29T16:45:47.166Z,9.69
2019-03-29T16:50:24.991Z,7.94
2019-03-29T16:55:34.170Z,9.42
2019-03-29T17:00:43.269Z,8.66
2019-03-29T17:05:52.343Z,8.02
2019-03-29T17:11:01.375Z,7.37
2019-03-29T17:16:10.611Z,7.36
2019-03-29T17:21:19.842Z,9.14
2019-03-29T17:26:29.157Z,18.45
2019-03-29T17:31:38.209Z,13.04
2019-03-29T17:36:47.374Z,13.78
2019-03-29T17:41:56.474Z,9.86
2019-03-29T17:47:05.553Z,6.56
2019-03-29T17:52:14.590Z,6.04
2019-03-29T17:57:23.778Z,6.03
2019-03-29T18:02:32.985Z,7.79
2019-03-29T18:07:42.115Z,6.45
2019-03-29T18:12:51.203Z,6.23
2019-03-29T18:18:00.424Z,6.29
2019-03-29T18:23:09.521Z,7.07
2019-03-29T18:28:18.681Z,4.19
2019-03-29T18:33:27.738Z,6.83
2019-03-29T18:38:36.925Z,6.12
2019-03-29T18:43:46.138Z,5.92
2019-03-29T18:48:55.589Z,9.61
2019-03-29T18:54:04.665Z,16.19
2019-03-29T18:59:13.834Z,15.33
2019-03-29T19:04:22.902Z,12.81
2019-03-29T19:09:32.002Z,6.04
2019-03-29T19:14:41.757Z,9.83
2019-03-29T19:19:49.713Z,8.02
2019-03-29T19:24:58.819Z,7.89
2019-03-29T19:30:07.947Z,7.27
2019-03-29T19:35:17.034Z,6.87
2019-03-29T19:40:26.198Z,11.48
2019-03-29T19:45:35.207Z,8.93
2019-03-29T19:50:44.374Z,6.50
2019-03-29T19:55:53.449Z,7.44
2019-03-29T20:01:06.782Z,10.40
2019-03-29T20:06:05.877Z,10.27
2019-03-29T20:11:14.969Z,11.84
2019-03-29T20:16:24.002Z,11.07
2019-03-29T20:21:33.340Z,12.12
2019-03-29T20:26:42.425Z,7.83
2019-03-29T20:31:51.556Z,9.62
2019-03-29T20:37:00.647Z,10.45
2019-03-29T20:42:09.801Z,7.45
2019-03-29T20:47:18.857Z,10.91
2019-03-29T20:52:28.023Z,10.56
2019-03-29T20:57:37.069Z,10.87
2019-03-29T21:02:46.291Z,12.08
2019-03-29T21:07:55.261Z,13.10
2019-03-29T21:13:07.075Z,12.86
2019-03-29T21:18:12.969Z,6.63
2019-03-29T21:23:22.316Z,7.76
2019-03-29T21:28:34.821Z,8.40
2019-03-29T21:33:40.839Z,7.30
2019-03-29T21:38:48.727Z,6.46
2019-03-29T21:43:57.851Z,5.99
2019-03-29T21:49:06.940Z,7.49
2019-03-29T21:54:16.040Z,8.13
2019-03-29T21:59:25.298Z,5.18
2019-03-29T22:04:34.229Z,6.40
2019-03-29T22:09:43.326Z,6.43
2019-03-29T22:14:52.446Z,7.48
2019-03-29T22:20:01.491Z,8.59
2019-03-29T22:25:10.618Z,5.47
2019-03-29T22:30:19.669Z,8.29
2019-03-29T22:35:28.779Z,10.59
2019-03-29T22:40:37.865Z,9.41
2019-03-29T22:45:47.360Z,10.92
2019-03-29T22:50:56.382Z,8.60
2019-03-29T22:56:05.510Z,11.29
2019-03-29T23:01:14.562Z,11.09
2019-03-29T23:06:23.725Z,14.07
2019-03-29T23:11:32.770Z,13.32
2019-03-29T23:16:41.958Z,14.60
2019-03-29T23:21:51.027Z,11.57
2019-03-29T23:27:00.177Z,16.21
2019-03-29T23:32:11.241Z,12.15
2019-03-29T23:37:10.413Z,16.88
2019-03-29T23:42:19.490Z,18.86
2019-03-29T23:47:28.680Z,13.68
2019-03-29T23:52:37.745Z,17.53
2019-03-29T23:57:46.949Z,14.43
